sensor_id;sensor_type;location;lat;lon;timestamp;temperature;humidity
64468;DHT22;50853;46.836;16.820;2023-07-31T09:01:43;24.90;60.80
64468;DHT22;50853;46.836;16.820;2023-07-31T09:04:13;24.90;61.40
64468;DHT22;50853;46.836;16.820;2023-07-31T09:06:40;24.90;61.40
64468;DHT22;50853;46.836;16.820;2023-07-31T09:09:06;24.90;61.40
64468;DHT22;50853;46.836;16.820;2023-07-31T09:11:32;25.00;62.00
64468;DHT22;50853;46.836;16.820;2023-07-31T09:13:58;25.00;62.20
64468;DHT22;50853;46.836;16.820;2023-07-31T09:16:28;25.20;63.20
64468;DHT22;50853;46.836;16.820;2023-07-31T09:18:57;25.20;63.30
64468;DHT22;50853;46.836;16.820;2023-07-31T09:21:24;25.20;63.30
64468;DHT22;50853;46.836;16.820;2023-07-31T09:23:51;25.20;65.30
64468;DHT22;50853;46.836;16.820;2023-07-31T09:26:30;25.20;64.50
64468;DHT22;50853;46.836;16.820;2023-07-31T09:28:57;25.20;63.80
64468;DHT22;50853;46.836;16.820;2023-07-31T09:31:52;25.20;62.70
64468;DHT22;50853;46.836;16.820;2023-07-31T09:34:18;25.30;64.60
64468;DHT22;50853;46.836;16.820;2023-07-31T09:36:49;25.30;65.40
64468;DHT22;50853;46.836;16.820;2023-07-31T11:28:50;25.30;57.50
64468;DHT22;50853;46.836;16.820;2023-07-31T11:31:16;25.40;60.60
64468;DHT22;50853;46.836;16.820;2023-07-31T11:33:43;25.40;60.40
64468;DHT22;50853;46.836;16.820;2023-07-31T11:36:19;25.40;60.50
64468;DHT22;50853;46.836;16.820;2023-07-31T11:38:45;25.50;59.90
64468;DHT22;50853;46.836;16.820;2023-07-31T11:41:14;25.50;60.30
64468;DHT22;50853;46.836;16.820;2023-07-31T11:43:41;25.50;60.20
64468;DHT22;50853;46.836;16.820;2023-07-31T11:46:07;25.50;60.10
64468;DHT22;50853;46.836;16.820;2023-07-31T11:48:35;25.60;59.80
64468;DHT22;50853;46.836;16.820;2023-07-31T13:10:25;26.00;57.50
64468;DHT22;50853;46.836;16.820;2023-07-31T13:13:00;26.00;59.00
64468;DHT22;50853;46.836;16.820;2023-07-31T13:15:26;26.00;58.30
64468;DHT22;50853;46.836;16.820;2023-07-31T13:17:52;26.00;57.30
64468;DHT22;50853;46.836;16.820;2023-07-31T13:20:19;26.00;58.00
64468;DHT22;50853;46.836;16.820;2023-07-31T13:22:45;26.10;58.10
64468;DHT22;50853;46.836;16.820;2023-07-31T13:25:11;26.00;57.40
64468;DHT22;50853;46.836;16.820;2023-07-31T13:27:36;26.10;57.20
64468;DHT22;50853;46.836;16.820;2023-07-31T13:30:02;26.10;57.20
64468;DHT22;50853;46.836;16.820;2023-07-31T13:32:29;26.10;59.50
64468;DHT22;50853;46.836;16.820;2023-07-31T13:34:55;26.20;58.90
64468;DHT22;50853;46.836;16.820;2023-07-31T13:37:21;26.30;60.30
64468;DHT22;50853;46.836;16.820;2023-07-31T13:39:47;26.40;58.20
64468;DHT22;50853;46.836;16.820;2023-07-31T13:42:13;26.40;58.00
64468;DHT22;50853;46.836;16.820;2023-07-31T14:43:54;26.50;64.20
64468;DHT22;50853;46.836;16.820;2023-07-31T14:46:19;26.60;64.60
64468;DHT22;50853;46.836;16.820;2023-07-31T14:48:45;26.60;64.90
64468;DHT22;50853;46.836;16.820;2023-07-31T14:51:11;26.60;64.20
64468;DHT22;50853;46.836;16.820;2023-07-31T14:53:37;26.70;63.60
64468;DHT22;50853;46.836;16.820;2023-07-31T14:56:02;26.80;63.00
64468;DHT22;50853;46.836;16.820;2023-07-31T14:58:28;26.80;62.90
64468;DHT22;50853;46.836;16.820;2023-07-31T15:00:54;26.80;62.80
64468;DHT22;50853;46.836;16.820;2023-07-31T15:03:20;26.80;63.10
64468;DHT22;50853;46.836;16.820;2023-07-31T15:05:46;26.90;62.80
64468;DHT22;50853;46.836;16.820;2023-07-31T15:08:12;27.00;63.10
64468;DHT22;50853;46.836;16.820;2023-07-31T15:10:37;27.00;63.00
64468;DHT22;50853;46.836;16.820;2023-07-31T15:13:03;27.00;63.10
64468;DHT22;50853;46.836;16.820;2023-07-31T15:15:29;27.10;63.10
64468;DHT22;50853;46.836;16.820;2023-07-31T18:11:56;27.30;61.50
64468;DHT22;50853;46.836;16.820;2023-07-31T18:14:23;27.20;62.20
64468;DHT22;50853;46.836;16.820;2023-07-31T18:16:51;27.10;62.50
64468;DHT22;50853;46.836;16.820;2023-07-31T18:19:17;27.10;62.20
64468;DHT22;50853;46.836;16.820;2023-07-31T18:21:43;27.00;61.70
64468;DHT22;50853;46.836;16.820;2023-07-31T18:24:09;27.00;61.20
64468;DHT22;50853;46.836;16.820;2023-07-31T18:26:35;27.00;60.70
64468;DHT22;50853;46.836;16.820;2023-07-31T18:29:02;27.10;60.80
64468;DHT22;50853;46.836;16.820;2023-07-31T18:31:28;27.10;60.90
64468;DHT22;50853;46.836;16.820;2023-07-31T18:33:54;27.00;60.70
64468;DHT22;50853;46.836;16.820;2023-07-31T18:36:20;27.20;60.60
